createdAt,value
2022-08-31T00:02:03.691Z,101239.81
2022-08-31T00:04:31.814Z,101212.16
2022-08-31T00:06:58.417Z,101239.75
2022-08-31T00:09:25.034Z,101188.44
2022-08-31T00:11:51.545Z,101236.22
2022-08-31T00:14:18.210Z,101183.88
2022-08-31T00:16:45.911Z,101229.31
2022-08-31T00:19:15.130Z,101228.69
2022-08-31T00:21:41.936Z,101221.31
2022-08-31T00:24:11.522Z,101203.72
2022-08-31T00:26:38.014Z,101215.28
2022-08-31T00:29:05.135Z,101145.50
2022-08-31T00:31:31.674Z,101230.28
2022-08-31T00:33:58.617Z,101220.84
2022-08-31T00:36:26.240Z,101239.59
2022-08-31T00:38:54.442Z,101171.53
2022-08-31T00:41:25.065Z,101246.53
2022-08-31T00:43:57.089Z,101247.78
2022-08-31T00:46:33.109Z,101255.41
2022-08-31T00:49:22.091Z,101255.22
2022-08-31T00:51:59.281Z,101264.91
2022-08-31T00:54:34.598Z,101226.28
2022-08-31T00:57:01.787Z,101238.84
2022-08-31T00:59:28.847Z,101245.41
2022-08-31T01:01:55.463Z,101244.22
2022-08-31T01:04:22.427Z,101257.22
2022-08-31T01:06:49.891Z,101272.09
2022-08-31T01:09:17.036Z,101258.53
2022-08-31T01:11:43.774Z,101257.59
2022-08-31T01:14:11.000Z,101259.56
2022-08-31T01:16:52.692Z,101261.47
2022-08-31T01:19:42.144Z,101282.16
2022-08-31T01:22:25.977Z,101258.19
2022-08-31T01:24:54.843Z,101239.97
2022-08-31T01:27:28.829Z,101248.16
2022-08-31T01:29:59.657Z,101253.81
2022-08-31T01:32:26.103Z,101126.81
2022-08-31T01:34:52.746Z,101235.94
2022-08-31T01:37:19.409Z,101248.38
2022-08-31T01:39:56.519Z,101235.13
2022-08-31T01:42:22.907Z,101161.44
2022-08-31T01:44:59.635Z,101235.59
2022-08-31T01:47:26.119Z,101255.44
2022-08-31T01:49:52.533Z,101234.78
2022-08-31T01:52:23.568Z,101266.38
2022-08-31T01:54:54.213Z,101294.53
2022-08-31T01:57:30.812Z,101290.16
2022-08-31T02:00:04.409Z,101300.66
2022-08-31T02:02:31.078Z,101215.34
2022-08-31T02:04:58.967Z,101241.63
2022-08-31T02:07:25.517Z,101185.63
2022-08-31T02:09:53.546Z,101188.31
2022-08-31T02:12:20.060Z,101298.91
2022-08-31T02:14:46.501Z,101287.97
2022-08-31T02:17:12.918Z,101141.09
2022-08-31T02:19:39.340Z,101276.69
2022-08-31T02:22:06.044Z,101218.41
2022-08-31T02:24:32.670Z,101284.41
2022-08-31T02:26:59.259Z,101254.63
2022-08-31T02:29:25.803Z,101293.97
2022-08-31T02:31:52.325Z,101276.50
2022-08-31T02:34:19.309Z,101294.16
2022-08-31T02:36:45.822Z,101193.34
2022-08-31T02:39:13.681Z,101276.41
2022-08-31T02:41:42.335Z,101289.38
2022-08-31T02:44:08.803Z,101268.13
2022-08-31T02:46:35.558Z,101176.94
2022-08-31T02:49:02.631Z,101176.94
2022-08-31T02:51:29.558Z,101273.09
2022-08-31T02:53:56.078Z,101269.09
2022-08-31T02:56:23.745Z,101242.84
2022-08-31T02:58:54.795Z,101288.19
2022-08-31T03:01:22.839Z,101289.78
2022-08-31T03:03:50.000Z,101261.78
2022-08-31T03:06:17.454Z,101273.56
2022-08-31T03:08:43.942Z,101183.88
2022-08-31T03:11:10.387Z,101310.44
2022-08-31T03:13:38.101Z,101292.81
2022-08-31T03:16:05.420Z,101296.38
2022-08-31T03:18:32.863Z,101251.28
2022-08-31T03:20:59.514Z,101283.16
2022-08-31T03:23:26.291Z,101256.06
2022-08-31T03:25:52.752Z,101267.31
2022-08-31T03:28:19.330Z,101278.59
2022-08-31T03:30:45.784Z,101277.16
2022-08-31T03:33:12.693Z,101248.56
2022-08-31T03:35:44.014Z,101283.75
2022-08-31T03:38:12.731Z,101209.56
2022-08-31T03:40:40.983Z,101285.19
2022-08-31T03:43:11.628Z,101279.75
2022-08-31T03:45:40.066Z,101275.97
2022-08-31T03:48:11.986Z,101282.88
2022-08-31T03:50:39.767Z,101265.50
2022-08-31T03:53:07.486Z,101195.78
2022-08-31T03:55:35.863Z,101290.69
2022-08-31T03:58:02.331Z,101255.63
2022-08-31T04:00:29.552Z,101283.91
2022-08-31T04:02:59.618Z,101167.13
2022-08-31T04:05:28.273Z,101283.47
2022-08-31T04:07:55.761Z,101296.91
2022-08-31T04:10:23.014Z,101280.88
2022-08-31T04:12:50.388Z,101296.28
2022-08-31T04:15:17.987Z,101268.25
2022-08-31T04:17:47.593Z,101211.84
2022-08-31T04:20:14.475Z,101286.03
2022-08-31T04:22:41.058Z,101265.97
2022-08-31T04:25:10.133Z,101287.06
2022-08-31T04:27:38.124Z,101276.50
2022-08-31T04:30:07.579Z,101301.69
2022-08-31T04:32:35.196Z,101289.59
2022-08-31T04:35:01.974Z,101296.38
2022-08-31T04:37:29.499Z,101186.06
2022-08-31T04:39:59.241Z,101295.69
2022-08-31T04:42:26.194Z,101258.72
2022-08-31T04:44:52.621Z,101221.63
2022-08-31T04:47:20.344Z,101267.84
2022-08-31T04:49:48.162Z,101216.75
2022-08-31T04:52:14.660Z,101281.44
2022-08-31T04:54:41.127Z,101269.28
2022-08-31T04:57:07.568Z,101280.50
2022-08-31T04:59:33.986Z,101296.00
2022-08-31T05:02:00.493Z,101280.75
2022-08-31T05:04:28.990Z,101280.50
2022-08-31T05:06:55.487Z,101302.69
2022-08-31T05:09:23.616Z,101303.78
2022-08-31T05:11:52.379Z,101301.13
2022-08-31T05:14:18.962Z,101299.88
2022-08-31T05:16:45.863Z,101210.09
2022-08-31T05:19:12.442Z,101300.72
2022-08-31T05:21:41.353Z,101279.75
2022-08-31T05:24:14.495Z,101291.00
2022-08-31T05:26:44.434Z,101304.78
2022-08-31T05:29:14.184Z,101309.66
2022-08-31T05:31:41.624Z,101305.00
2022-08-31T05:34:08.378Z,101236.91
2022-08-31T05:36:35.438Z,101297.38
2022-08-31T05:39:02.184Z,101210.53
2022-08-31T05:41:29.878Z,101310.88
2022-08-31T05:43:56.458Z,101290.66
2022-08-31T05:46:23.502Z,101301.84
2022-08-31T05:48:50.095Z,101217.16
2022-08-31T05:51:18.156Z,101303.28
2022-08-31T05:53:45.639Z,101293.59
2022-08-31T05:56:15.806Z,101265.19
2022-08-31T05:58:46.321Z,101294.09
2022-08-31T06:01:30.409Z,101286.13
2022-08-31T06:03:58.056Z,101300.81
2022-08-31T06:06:24.859Z,101284.31
2022-08-31T06:08:52.017Z,101294.88
2022-08-31T06:11:22.133Z,101255.63
2022-08-31T06:13:51.200Z,101310.72
2022-08-31T06:16:18.281Z,101264.09
2022-08-31T06:18:50.667Z,101308.34
2022-08-31T06:21:33.391Z,101295.72
2022-08-31T06:24:02.041Z,101317.31
2022-08-31T06:26:30.378Z,101317.91
2022-08-31T06:29:00.138Z,101317.25
2022-08-31T06:31:31.009Z,101316.75
2022-08-31T06:33:58.069Z,101317.75
2022-08-31T06:36:26.788Z,101318.56
2022-08-31T06:38:56.129Z,101323.59
2022-08-31T06:41:27.118Z,101321.72
2022-08-31T06:43:53.969Z,101312.72
2022-08-31T06:46:21.745Z,101293.72
2022-08-31T06:48:50.685Z,101263.72
2022-08-31T06:51:17.934Z,101221.50
2022-08-31T06:53:44.491Z,101310.19
2022-08-31T06:56:20.792Z,101317.59
2022-08-31T06:58:53.616Z,101344.56
2022-08-31T07:01:32.584Z,101328.22
2022-08-31T07:04:07.746Z,101312.72
2022-08-31T07:06:37.958Z,101312.28
2022-08-31T07:09:06.800Z,101347.84
2022-08-31T07:11:44.491Z,101322.75
2022-08-31T07:14:14.272Z,101349.53
2022-08-31T07:16:42.250Z,101256.88
2022-08-31T07:19:09.237Z,101321.19
2022-08-31T07:21:41.342Z,101340.75
2022-08-31T07:24:08.913Z,101327.69
2022-08-31T07:26:40.027Z,101360.00
2022-08-31T07:29:07.450Z,101351.06
2022-08-31T07:31:44.772Z,101355.31
2022-08-31T07:34:12.942Z,101363.44
2022-08-31T07:36:58.902Z,101368.53
2022-08-31T07:39:45.647Z,101360.78
2022-08-31T07:42:16.007Z,101368.44
2022-08-31T07:44:52.948Z,101347.97
2022-08-31T07:47:20.533Z,101373.13
2022-08-31T07:49:52.308Z,101359.41
2022-08-31T07:52:30.078Z,101273.03
2022-08-31T07:55:07.883Z,101187.13
2022-08-31T07:57:44.226Z,101349.22
2022-08-31T08:00:40.010Z,101345.69
2022-08-31T08:03:13.126Z,101307.53
2022-08-31T08:05:41.628Z,101384.63
2022-08-31T08:08:13.871Z,101375.22
2022-08-31T08:10:46.709Z,101384.13
2022-08-31T08:13:20.111Z,101352.91
2022-08-31T08:15:48.021Z,101265.13
2022-08-31T08:18:14.631Z,101339.59
2022-08-31T08:20:41.306Z,101335.91
2022-08-31T08:23:14.044Z,101389.94
2022-08-31T08:25:43.528Z,101384.31
2022-08-31T08:28:37.964Z,101186.53
2022-08-31T08:31:04.687Z,101366.94
2022-08-31T08:33:33.512Z,101392.56
2022-08-31T08:36:03.514Z,101343.72
2022-08-31T08:38:31.486Z,101391.19
2022-08-31T08:41:04.957Z,101371.78
2022-08-31T08:43:34.951Z,101362.06
2022-08-31T08:46:19.799Z,101353.69
2022-08-31T08:48:55.505Z,101400.34
2022-08-31T08:51:29.315Z,101379.88
2022-08-31T08:54:02.976Z,101275.06
2022-08-31T08:56:33.791Z,101380.50
2022-08-31T08:59:00.796Z,101382.97
2022-08-31T09:01:29.230Z,101384.53
2022-08-31T09:04:17.150Z,101383.28
2022-08-31T09:07:12.011Z,101385.84
2022-08-31T09:10:00.781Z,101344.59
2022-08-31T09:12:33.820Z,101371.84
2022-08-31T09:15:36.193Z,101386.81
2022-08-31T09:18:33.498Z,101390.47
2022-08-31T09:21:06.292Z,101360.47
2022-08-31T09:23:44.215Z,101355.25
2022-08-31T09:26:16.151Z,101369.97
2022-08-31T09:28:47.109Z,101388.00
2022-08-31T09:31:37.404Z,101385.16
2022-08-31T09:34:12.446Z,101380.97
2022-08-31T09:36:43.400Z,101377.75
2022-08-31T09:39:34.509Z,101384.31
2022-08-31T09:42:14.811Z,101342.63
2022-08-31T09:44:42.839Z,101381.94
2022-08-31T09:47:43.658Z,101387.06
2022-08-31T09:50:11.243Z,101361.00
2022-08-31T09:52:58.484Z,101384.94
2022-08-31T09:55:27.937Z,101339.97
2022-08-31T09:57:55.993Z,101385.06
2022-08-31T10:00:36.593Z,101389.22
2022-08-31T10:03:25.952Z,101375.28
2022-08-31T10:05:54.538Z,101390.72
2022-08-31T10:08:46.180Z,101384.25
2022-08-31T10:11:17.933Z,101371.69
2022-08-31T10:13:57.044Z,101380.53
2022-08-31T10:16:27.252Z,101380.75
2022-08-31T10:19:06.228Z,101380.25
2022-08-31T10:21:32.687Z,101386.34
2022-08-31T10:24:28.243Z,101376.19
2022-08-31T10:27:31.423Z,101368.69
2022-08-31T10:30:11.441Z,101360.72
2022-08-31T10:32:53.263Z,101379.94
2022-08-31T10:35:26.393Z,101351.63
2022-08-31T10:37:58.586Z,101382.03
2022-08-31T10:40:35.060Z,101362.28
2022-08-31T10:43:11.773Z,101341.06
2022-08-31T10:45:43.102Z,101367.59
2022-08-31T10:48:12.759Z,101308.41
2022-08-31T10:51:14.180Z,101369.03
2022-08-31T10:54:07.161Z,101370.81
2022-08-31T10:57:05.459Z,101350.25
2022-08-31T10:59:45.934Z,101367.06
2022-08-31T11:02:28.158Z,101372.84
2022-08-31T11:05:26.039Z,101372.38
2022-08-31T11:08:01.680Z,101368.50
2022-08-31T11:10:55.153Z,101370.06
2022-08-31T11:13:31.216Z,101375.50
2022-08-31T11:16:19.772Z,101367.38
2022-08-31T11:19:12.637Z,101373.03
2022-08-31T11:22:02.917Z,101354.94
2022-08-31T11:24:56.658Z,101370.34
2022-08-31T11:27:26.999Z,101356.41
2022-08-31T11:30:02.624Z,101369.13
2022-08-31T11:32:46.601Z,101309.09
2022-08-31T11:35:15.525Z,101356.41
2022-08-31T11:37:55.570Z,101333.44
2022-08-31T11:40:44.008Z,101363.00
2022-08-31T11:43:33.624Z,101312.28
2022-08-31T11:46:26.951Z,101341.97
2022-08-31T11:48:53.905Z,101345.25
2022-08-31T11:51:40.990Z,101338.75
2022-08-31T11:54:41.498Z,101338.91
2022-08-31T11:57:15.723Z,101324.28
2022-08-31T11:59:45.879Z,101343.91
2022-08-31T12:02:21.770Z,101338.41
2022-08-31T12:05:03.058Z,101270.88
2022-08-31T12:07:36.435Z,101335.47
2022-08-31T12:10:15.701Z,101336.09
2022-08-31T12:13:09.528Z,101333.19
2022-08-31T12:16:01.943Z,101299.72
2022-08-31T12:18:38.461Z,101319.31
2022-08-31T12:21:31.064Z,101322.50
2022-08-31T12:24:06.258Z,101322.91
2022-08-31T12:27:00.447Z,101314.84
2022-08-31T12:29:35.466Z,101306.28
2022-08-31T12:32:21.520Z,101277.94
2022-08-31T12:35:00.345Z,101279.81
2022-08-31T12:37:36.026Z,101295.31
2022-08-31T12:40:19.901Z,101318.16
2022-08-31T12:42:55.100Z,101285.75
2022-08-31T12:45:49.441Z,101308.25
2022-08-31T12:48:27.027Z,101300.09
2022-08-31T12:51:13.163Z,101260.38
2022-08-31T12:53:58.194Z,101301.47
2022-08-31T12:56:36.718Z,101295.53
2022-08-31T12:59:12.238Z,101299.94
2022-08-31T13:01:46.300Z,101290.44
2022-08-31T13:04:16.036Z,101300.88
2022-08-31T13:06:45.064Z,101283.41
2022-08-31T13:09:33.077Z,101277.53
2022-08-31T13:12:00.825Z,101277.22
2022-08-31T13:14:40.058Z,101293.44
2022-08-31T13:17:29.358Z,101278.34
2022-08-31T13:19:59.254Z,101286.09
2022-08-31T13:22:31.449Z,101289.03
2022-08-31T13:25:13.322Z,101278.78
2022-08-31T13:27:51.264Z,101268.16
2022-08-31T13:30:21.190Z,101285.50
2022-08-31T13:32:54.629Z,101268.16
2022-08-31T13:35:26.026Z,101256.44
2022-08-31T13:38:05.749Z,101269.53
2022-08-31T13:40:37.390Z,101274.22
2022-08-31T13:43:07.422Z,101250.22
2022-08-31T13:45:40.002Z,101249.88
2022-08-31T13:48:14.338Z,101269.84
2022-08-31T13:50:53.392Z,101274.28
2022-08-31T13:53:43.075Z,101262.97
2022-08-31T13:56:52.474Z,101265.06
2022-08-31T13:59:32.901Z,101263.19
2022-08-31T14:02:19.442Z,101255.88
2022-08-31T14:04:57.436Z,101268.38
2022-08-31T14:07:32.861Z,101263.53
2022-08-31T14:10:07.933Z,101271.69
2022-08-31T14:12:46.042Z,101223.38
2022-08-31T14:15:17.383Z,101249.47
2022-08-31T14:21:20.974Z,101174.59
2022-08-31T14:24:03.223Z,101214.31
2022-08-31T14:26:33.377Z,101260.53
2022-08-31T14:29:10.003Z,101234.28
2022-08-31T14:31:52.300Z,101196.66
2022-08-31T14:34:25.264Z,101234.94
2022-08-31T14:37:06.402Z,101239.34
2022-08-31T14:39:38.784Z,101243.47
2022-08-31T14:42:18.543Z,101200.91
2022-08-31T14:44:53.649Z,101214.03
2022-08-31T14:47:24.214Z,101219.56
2022-08-31T14:49:51.622Z,101163.47
2022-08-31T14:52:18.580Z,101226.09
2022-08-31T14:54:46.044Z,101235.41
2022-08-31T14:57:17.678Z,101234.78
2022-08-31T14:59:46.704Z,101215.75
2022-08-31T15:02:16.429Z,101209.78
2022-08-31T15:04:45.529Z,101205.88
2022-08-31T15:07:13.936Z,101229.44
2022-08-31T15:09:42.223Z,101214.97
2022-08-31T15:12:14.683Z,101229.13
2022-08-31T15:14:43.084Z,101236.38
2022-08-31T15:17:11.683Z,101188.09
2022-08-31T15:19:46.038Z,101208.25
2022-08-31T15:22:12.568Z,101225.09
2022-08-31T15:24:46.376Z,101194.94
2022-08-31T15:27:15.138Z,101233.03
2022-08-31T15:29:43.428Z,101235.88
2022-08-31T15:32:10.273Z,101202.84
2022-08-31T15:34:38.195Z,101215.06
2022-08-31T15:37:07.314Z,101209.69
2022-08-31T15:39:48.796Z,101224.81
2022-08-31T15:42:20.504Z,101132.84
2022-08-31T15:44:56.015Z,101223.09
2022-08-31T15:47:47.900Z,101224.44
2022-08-31T15:50:19.281Z,101221.69
2022-08-31T15:52:51.586Z,101174.97
2022-08-31T15:55:23.336Z,101222.09
2022-08-31T15:57:54.457Z,101195.81
2022-08-31T16:00:26.068Z,101190.44
2022-08-31T16:02:57.631Z,101148.91
2022-08-31T16:05:28.303Z,101211.03
2022-08-31T16:07:57.277Z,101230.97
2022-08-31T16:10:24.526Z,101189.19
2022-08-31T16:12:54.781Z,101175.59
2022-08-31T16:15:24.648Z,101204.59
2022-08-31T16:17:54.033Z,101196.91
2022-08-31T16:20:20.742Z,101183.53
2022-08-31T16:22:48.349Z,101197.75
2022-08-31T16:25:16.311Z,101175.88
2022-08-31T16:27:43.384Z,101197.91
2022-08-31T16:30:11.833Z,101210.53
2022-08-31T16:32:38.329Z,101205.91
2022-08-31T16:35:05.672Z,101206.19
2022-08-31T16:37:33.181Z,101199.75
2022-08-31T16:40:00.129Z,101210.66
2022-08-31T16:42:26.831Z,101139.31
2022-08-31T16:44:53.363Z,101126.56
2022-08-31T16:47:21.496Z,101205.16
2022-08-31T16:49:48.378Z,101214.78
2022-08-31T16:52:21.411Z,101191.69
2022-08-31T16:54:51.004Z,101186.53
2022-08-31T16:57:21.131Z,101208.88
2022-08-31T16:59:48.718Z,101209.38
2022-08-31T17:02:16.564Z,101218.44
2022-08-31T17:04:53.398Z,101211.09
2022-08-31T17:07:22.116Z,101168.56
2022-08-31T17:09:49.027Z,101180.16
2022-08-31T17:12:19.373Z,101210.25
2022-08-31T17:14:48.340Z,101120.66
2022-08-31T17:17:19.030Z,101133.59
2022-08-31T17:19:46.842Z,101195.16
2022-08-31T17:22:23.300Z,101169.03
2022-08-31T17:24:56.371Z,101205.91
2022-08-31T17:27:25.279Z,101117.84
2022-08-31T17:29:55.700Z,101151.66
2022-08-31T17:32:27.832Z,101134.06
2022-08-31T17:34:55.686Z,101149.47
2022-08-31T17:37:30.346Z,101116.84
2022-08-31T17:39:58.947Z,101187.16
2022-08-31T17:42:27.169Z,101124.47
2022-08-31T17:44:55.513Z,101094.22
2022-08-31T17:47:23.887Z,101101.78
2022-08-31T17:49:52.472Z,101163.66
2022-08-31T17:52:20.792Z,101145.00
2022-08-31T17:54:48.443Z,101144.91
2022-08-31T17:57:17.129Z,101224.41
2022-08-31T17:59:49.253Z,101150.38
2022-08-31T18:02:22.736Z,101186.03
2022-08-31T18:04:49.353Z,101208.28
2022-08-31T18:07:16.229Z,101180.41
2022-08-31T18:09:45.516Z,101214.63
2022-08-31T18:12:14.425Z,101158.69
2022-08-31T18:14:41.607Z,101182.38
2022-08-31T18:17:11.256Z,101226.34
2022-08-31T18:19:38.285Z,101162.47
2022-08-31T18:22:05.185Z,101246.88
2022-08-31T18:24:35.348Z,101248.44
2022-08-31T18:27:04.101Z,101164.00
2022-08-31T18:29:33.981Z,101167.66
2022-08-31T18:32:09.862Z,101187.19
2022-08-31T18:34:40.107Z,101189.75
2022-08-31T18:37:07.816Z,101258.34
2022-08-31T18:39:53.142Z,101193.78
2022-08-31T18:42:39.447Z,101253.69
2022-08-31T18:45:18.163Z,101198.41
2022-08-31T18:48:07.217Z,101174.56
2022-08-31T18:50:36.980Z,101225.75
2022-08-31T18:53:08.192Z,101157.91
2022-08-31T18:55:41.472Z,101197.34
2022-08-31T18:58:07.999Z,101209.34
2022-08-31T19:00:34.849Z,101229.88
2022-08-31T19:03:02.510Z,101233.72
2022-08-31T19:05:29.745Z,101260.16
2022-08-31T19:07:58.137Z,101304.88
2022-08-31T19:10:25.657Z,101211.63
2022-08-31T19:12:55.302Z,101222.50
2022-08-31T19:15:25.586Z,101275.47
2022-08-31T19:18:01.600Z,101225.78
2022-08-31T19:20:29.328Z,101204.41
2022-08-31T19:22:57.309Z,101229.66
2022-08-31T19:25:27.068Z,101225.41
2022-08-31T19:27:54.809Z,101282.75
2022-08-31T19:30:27.284Z,101251.94
2022-08-31T19:32:58.117Z,101254.78
2022-08-31T19:35:27.376Z,101238.88
2022-08-31T19:37:56.369Z,101203.88
2022-08-31T19:40:35.552Z,101243.66
2022-08-31T19:43:43.006Z,101236.63
2022-08-31T19:45:49.019Z,101310.06
2022-08-31T19:48:17.207Z,101204.72
2022-08-31T19:50:44.152Z,101205.19
2022-08-31T19:53:12.093Z,101222.13
2022-08-31T19:55:50.085Z,101197.72
2022-08-31T19:58:19.242Z,101210.25
2022-08-31T20:00:48.245Z,101187.13
2022-08-31T20:03:15.747Z,101220.00
2022-08-31T20:05:43.502Z,101221.94
2022-08-31T20:08:12.829Z,101223.56
2022-08-31T20:10:44.567Z,101274.66
2022-08-31T20:13:12.677Z,101233.75
2022-08-31T20:15:44.455Z,101215.34
2022-08-31T20:18:12.913Z,101245.84
2022-08-31T20:20:45.889Z,101316.09
2022-08-31T20:23:16.727Z,101217.88
2022-08-31T20:25:45.487Z,101308.09
2022-08-31T20:28:12.867Z,101212.88
2022-08-31T20:30:41.233Z,101271.91
2022-08-31T20:33:08.198Z,101225.59
2022-08-31T20:35:38.675Z,101303.81
2022-08-31T20:38:06.134Z,101208.50
2022-08-31T20:40:33.403Z,101221.13
2022-08-31T20:43:01.438Z,101289.25
2022-08-31T20:45:28.006Z,101178.47
2022-08-31T20:48:13.009Z,101186.41
2022-08-31T20:50:42.707Z,101248.72
2022-08-31T20:53:18.535Z,101298.91
2022-08-31T20:56:07.944Z,101225.47
2022-08-31T20:58:34.368Z,101229.66
2022-08-31T21:01:07.309Z,101233.09
2022-08-31T21:03:34.671Z,101237.47
2022-08-31T21:06:02.913Z,101245.28
2022-08-31T21:08:29.360Z,101304.94
2022-08-31T21:10:55.791Z,101194.47
2022-08-31T21:13:22.192Z,101225.38
2022-08-31T21:15:48.645Z,101233.66
2022-08-31T21:18:18.929Z,101221.22
2022-08-31T21:20:46.226Z,101224.84
2022-08-31T21:23:13.371Z,101183.31
2022-08-31T21:25:45.628Z,101211.53
2022-08-31T21:28:15.557Z,101219.81
2022-08-31T21:30:42.060Z,101220.09
2022-08-31T21:33:08.499Z,101255.03
2022-08-31T21:35:35.705Z,101215.47
2022-08-31T21:38:03.156Z,101276.41
2022-08-31T21:40:31.012Z,101268.28
2022-08-31T21:42:58.322Z,101191.28
2022-08-31T21:45:25.207Z,101308.31
2022-08-31T21:47:51.635Z,101208.97
2022-08-31T21:50:18.186Z,101197.94
2022-08-31T21:52:44.575Z,101191.84
2022-08-31T21:55:13.561Z,101218.34
2022-08-31T21:57:40.771Z,101216.84
2022-08-31T22:00:13.675Z,101203.31
2022-08-31T22:02:46.683Z,101219.69
2022-08-31T22:05:13.871Z,101210.09
2022-08-31T22:07:40.652Z,101310.63
2022-08-31T22:10:07.614Z,101204.47
2022-08-31T22:12:34.135Z,101313.16
2022-08-31T22:15:05.213Z,101228.38
2022-08-31T22:17:48.527Z,101221.25
2022-08-31T22:20:19.881Z,101231.38
2022-08-31T22:22:46.986Z,101218.03
2022-08-31T22:25:13.715Z,101211.56
2022-08-31T22:27:40.218Z,101236.25
2022-08-31T22:30:07.374Z,101289.19
2022-08-31T22:32:33.994Z,101217.31
2022-08-31T22:35:00.598Z,101203.94
2022-08-31T22:37:27.016Z,101304.06
2022-08-31T22:39:55.183Z,101214.63
2022-08-31T22:42:22.310Z,101207.16
2022-08-31T22:44:48.700Z,101224.34
2022-08-31T22:47:15.162Z,101216.13
2022-08-31T22:49:41.549Z,101316.84
2022-08-31T22:52:08.018Z,101191.84
2022-08-31T22:54:35.195Z,101237.38
2022-08-31T22:57:01.773Z,101220.78
2022-08-31T22:59:30.503Z,101319.50
2022-08-31T23:02:03.842Z,101312.88
2022-08-31T23:04:33.190Z,101265.69
2022-08-31T23:07:01.309Z,101232.88
2022-08-31T23:09:30.882Z,101225.28
2022-08-31T23:12:00.139Z,101193.72
2022-08-31T23:14:27.622Z,101230.59
2022-08-31T23:16:58.610Z,101203.53
2022-08-31T23:19:30.807Z,101313.81
2022-08-31T23:21:58.189Z,101218.78
2022-08-31T23:24:28.563Z,101309.00
2022-08-31T23:27:00.448Z,101238.09
2022-08-31T23:29:30.933Z,101183.44
2022-08-31T23:31:58.247Z,101190.69
2022-08-31T23:34:24.736Z,101206.84
2022-08-31T23:36:53.203Z,101273.19
2022-08-31T23:39:23.431Z,101231.72
2022-08-31T23:41:50.499Z,101224.94
2022-08-31T23:44:20.417Z,101175.31
2022-08-31T23:46:46.925Z,101299.63
2022-08-31T23:49:16.860Z,101234.03
2022-08-31T23:51:43.661Z,101195.28
2022-08-31T23:54:12.393Z,101197.38
2022-08-31T23:56:41.873Z,101291.50
2022-08-31T23:59:11.847Z,101167.81
